sensor_id;sensor_type;location;lat;lon;timestamp;P1;durP1;ratioP1;P2;durP2;ratioP2
11039;SDS011;5573;49.592;8.662;2023-02-28T00:01:07;40.80;;;38.70;;
11039;SDS011;5573;49.592;8.662;2023-02-28T00:03:35;37.53;;;35.63;;
11039;SDS011;5573;49.592;8.662;2023-02-28T00:06:03;36.83;;;34.93;;
11039;SDS011;5573;49.592;8.662;2023-02-28T00:08:32;38.43;;;36.43;;
11039;SDS011;5573;49.592;8.662;2023-02-28T00:11:01;39.87;;;37.83;;
11039;SDS011;5573;49.592;8.662;2023-02-28T00:13:29;42.97;;;40.73;;
11039;SDS011;5573;49.592;8.662;2023-02-28T00:15:58;40.67;;;38.60;;
11039;SDS011;5573;49.592;8.662;2023-02-28T00:18:27;46.03;;;43.60;;
11039;SDS011;5573;49.592;8.662;2023-02-28T00:20:57;40.83;;;38.73;;
11039;SDS011;5573;49.592;8.662;2023-02-28T00:23:25;42.40;;;40.23;;
11039;SDS011;5573;49.592;8.662;2023-02-28T00:25:55;36.73;;;34.80;;
11039;SDS011;5573;49.592;8.662;2023-02-28T00:28:23;39.53;;;37.43;;
11039;SDS011;5573;49.592;8.662;2023-02-28T00:30:50;37.83;;;35.93;;
11039;SDS011;5573;49.592;8.662;2023-02-28T00:33:18;42.20;;;39.73;;
11039;SDS011;5573;49.592;8.662;2023-02-28T00:35:46;36.07;;;34.23;;
11039;SDS011;5573;49.592;8.662;2023-02-28T00:38:15;36.83;;;34.93;;
11039;SDS011;5573;49.592;8.662;2023-02-28T00:40:42;38.70;;;36.70;;
11039;SDS011;5573;49.592;8.662;2023-02-28T00:43:11;41.20;;;39.10;;
11039;SDS011;5573;49.592;8.662;2023-02-28T00:45:39;38.30;;;36.33;;
11039;SDS011;5573;49.592;8.662;2023-02-28T00:48:07;40.50;;;38.40;;
11039;SDS011;5573;49.592;8.662;2023-02-28T00:50:34;38.67;;;36.67;;
11039;SDS011;5573;49.592;8.662;2023-02-28T00:53:02;43.93;;;41.67;;
11039;SDS011;5573;49.592;8.662;2023-02-28T00:55:30;40.23;;;38.17;;
11039;SDS011;5573;49.592;8.662;2023-02-28T00:57:57;43.73;;;41.40;;
11039;SDS011;5573;49.592;8.662;2023-02-28T01:00:26;41.80;;;39.67;;
11039;SDS011;5573;49.592;8.662;2023-02-28T01:02:54;41.53;;;39.37;;
11039;SDS011;5573;49.592;8.662;2023-02-28T01:05:22;45.17;;;42.87;;
11039;SDS011;5573;49.592;8.662;2023-02-28T01:07:50;40.77;;;38.67;;
11039;SDS011;5573;49.592;8.662;2023-02-28T01:10:17;48.47;;;45.97;;
11039;SDS011;5573;49.592;8.662;2023-02-28T01:12:48;47.13;;;44.70;;
11039;SDS011;5573;49.592;8.662;2023-02-28T01:15:16;48.57;;;46.07;;
11039;SDS011;5573;49.592;8.662;2023-02-28T01:17:45;50.13;;;47.50;;
11039;SDS011;5573;49.592;8.662;2023-02-28T01:20:13;48.77;;;46.20;;
11039;SDS011;5573;49.592;8.662;2023-02-28T01:22:41;52.43;;;49.67;;
11039;SDS011;5573;49.592;8.662;2023-02-28T01:25:09;50.17;;;47.53;;
11039;SDS011;5573;49.592;8.662;2023-02-28T01:27:36;46.13;;;43.73;;
11039;SDS011;5573;49.592;8.662;2023-02-28T01:30:06;49.43;;;46.83;;
11039;SDS011;5573;49.592;8.662;2023-02-28T01:32:35;52.83;;;50.10;;
11039;SDS011;5573;49.592;8.662;2023-02-28T01:35:05;55.23;;;52.33;;
11039;SDS011;5573;49.592;8.662;2023-02-28T01:37:33;52.37;;;49.63;;
11039;SDS011;5573;49.592;8.662;2023-02-28T01:40:00;55.70;;;52.80;;
11039;SDS011;5573;49.592;8.662;2023-02-28T01:42:28;53.67;;;50.87;;
11039;SDS011;5573;49.592;8.662;2023-02-28T01:45:04;57.30;;;54.30;;
11039;SDS011;5573;49.592;8.662;2023-02-28T01:47:46;61.33;;;58.13;;
11039;SDS011;5573;49.592;8.662;2023-02-28T01:50:19;59.30;;;56.23;;
11039;SDS011;5573;49.592;8.662;2023-02-28T01:52:50;58.77;;;55.70;;
11039;SDS011;5573;49.592;8.662;2023-02-28T01:55:22;56.10;;;53.17;;
11039;SDS011;5573;49.592;8.662;2023-02-28T01:57:57;57.53;;;54.53;;
11039;SDS011;5573;49.592;8.662;2023-02-28T02:00:28;66.80;;;63.30;;
11039;SDS011;5573;49.592;8.662;2023-02-28T02:02:59;62.07;;;58.80;;
11039;SDS011;5573;49.592;8.662;2023-02-28T02:05:32;62.77;;;59.47;;
11039;SDS011;5573;49.592;8.662;2023-02-28T02:08:02;68.63;;;65.03;;
11039;SDS011;5573;49.592;8.662;2023-02-28T02:10:32;69.93;;;66.27;;
11039;SDS011;5573;49.592;8.662;2023-02-28T02:13:11;70.77;;;67.10;;
11039;SDS011;5573;49.592;8.662;2023-02-28T02:16:07;69.53;;;65.90;;
11039;SDS011;5573;49.592;8.662;2023-02-28T02:18:43;72.00;;;68.27;;
11039;SDS011;5573;49.592;8.662;2023-02-28T02:27:29;72.53;;;68.73;;
11039;SDS011;5573;49.592;8.662;2023-02-28T02:30:17;69.00;;;65.43;;
11039;SDS011;5573;49.592;8.662;2023-02-28T02:33:06;77.77;;;73.73;;
11039;SDS011;5573;49.592;8.662;2023-02-28T02:35:49;67.97;;;64.43;;
11039;SDS011;5573;49.592;8.662;2023-02-28T02:38:26;74.50;;;70.63;;
11039;SDS011;5573;49.592;8.662;2023-02-28T02:41:03;81.70;;;77.47;;
11039;SDS011;5573;49.592;8.662;2023-02-28T02:43:36;78.17;;;74.10;;
11039;SDS011;5573;49.592;8.662;2023-02-28T02:46:09;82.80;;;78.47;;
11039;SDS011;5573;49.592;8.662;2023-02-28T02:48:43;73.23;;;69.43;;
11039;SDS011;5573;49.592;8.662;2023-02-28T02:51:15;75.43;;;71.53;;
11039;SDS011;5573;49.592;8.662;2023-02-28T02:53:47;68.20;;;64.63;;
11039;SDS011;5573;49.592;8.662;2023-02-28T02:56:18;67.90;;;64.30;;
11039;SDS011;5573;49.592;8.662;2023-02-28T02:58:49;73.17;;;69.33;;
11039;SDS011;5573;49.592;8.662;2023-02-28T03:01:21;68.40;;;64.80;;
11039;SDS011;5573;49.592;8.662;2023-02-28T03:03:56;65.60;;;62.13;;
11039;SDS011;5573;49.592;8.662;2023-02-28T03:06:26;68.80;;;65.20;;
11039;SDS011;5573;49.592;8.662;2023-02-28T03:08:54;72.20;;;68.47;;
11039;SDS011;5573;49.592;8.662;2023-02-28T03:11:22;72.87;;;69.07;;
11039;SDS011;5573;49.592;8.662;2023-02-28T03:16:56;63.37;;;60.03;;
11039;SDS011;5573;49.592;8.662;2023-02-28T03:19:35;64.23;;;60.87;;
11039;SDS011;5573;49.592;8.662;2023-02-28T03:22:18;68.90;;;65.33;;
11039;SDS011;5573;49.592;8.662;2023-02-28T03:25:01;69.33;;;65.43;;
11039;SDS011;5573;49.592;8.662;2023-02-28T03:28:03;64.87;;;61.47;;
11039;SDS011;5573;49.592;8.662;2023-02-28T03:30:39;67.20;;;63.73;;
11039;SDS011;5573;49.592;8.662;2023-02-28T03:33:13;65.23;;;61.83;;
11039;SDS011;5573;49.592;8.662;2023-02-28T03:35:43;67.10;;;63.60;;
11039;SDS011;5573;49.592;8.662;2023-02-28T03:38:18;67.17;;;63.70;;
11039;SDS011;5573;49.592;8.662;2023-02-28T03:40:50;64.23;;;60.90;;
11039;SDS011;5573;49.592;8.662;2023-02-28T03:43:22;63.17;;;59.97;;
11039;SDS011;5573;49.592;8.662;2023-02-28T03:45:54;60.53;;;57.37;;
11039;SDS011;5573;49.592;8.662;2023-02-28T03:48:23;58.33;;;55.27;;
11039;SDS011;5573;49.592;8.662;2023-02-28T03:50:58;64.10;;;60.73;;
11039;SDS011;5573;49.592;8.662;2023-02-28T03:53:30;61.87;;;58.53;;
11039;SDS011;5573;49.592;8.662;2023-02-28T03:56:01;57.23;;;54.27;;
11039;SDS011;5573;49.592;8.662;2023-02-28T03:58:35;57.33;;;54.30;;
11039;SDS011;5573;49.592;8.662;2023-02-28T04:01:10;63.57;;;60.33;;
11039;SDS011;5573;49.592;8.662;2023-02-28T04:03:41;61.37;;;58.20;;
11039;SDS011;5573;49.592;8.662;2023-02-28T04:06:13;63.43;;;60.17;;
11039;SDS011;5573;49.592;8.662;2023-02-28T04:08:45;61.80;;;58.60;;
11039;SDS011;5573;49.592;8.662;2023-02-28T04:11:16;60.57;;;57.47;;
11039;SDS011;5573;49.592;8.662;2023-02-28T04:13:48;55.70;;;52.77;;
11039;SDS011;5573;49.592;8.662;2023-02-28T04:16:16;63.10;;;59.83;;
11039;SDS011;5573;49.592;8.662;2023-02-28T04:19:00;56.10;;;53.13;;
11039;SDS011;5573;49.592;8.662;2023-02-28T04:21:29;54.93;;;52.10;;
11039;SDS011;5573;49.592;8.662;2023-02-28T04:24:00;61.73;;;58.57;;
11039;SDS011;5573;49.592;8.662;2023-02-28T04:26:28;68.43;;;64.93;;
11039;SDS011;5573;49.592;8.662;2023-02-28T04:28:57;57.10;;;54.17;;
11039;SDS011;5573;49.592;8.662;2023-02-28T04:31:25;60.17;;;57.03;;
11039;SDS011;5573;49.592;8.662;2023-02-28T04:33:53;63.60;;;60.30;;
11039;SDS011;5573;49.592;8.662;2023-02-28T04:36:21;63.43;;;60.17;;
11039;SDS011;5573;49.592;8.662;2023-02-28T04:38:49;55.93;;;53.03;;
11039;SDS011;5573;49.592;8.662;2023-02-28T04:41:18;59.40;;;56.33;;
11039;SDS011;5573;49.592;8.662;2023-02-28T04:43:46;57.13;;;54.20;;
11039;SDS011;5573;49.592;8.662;2023-02-28T04:46:14;58.80;;;55.67;;
11039;SDS011;5573;49.592;8.662;2023-02-28T04:48:42;53.27;;;50.43;;
11039;SDS011;5573;49.592;8.662;2023-02-28T04:51:11;52.00;;;49.30;;
11039;SDS011;5573;49.592;8.662;2023-02-28T04:53:40;55.03;;;52.23;;
11039;SDS011;5573;49.592;8.662;2023-02-28T04:56:10;52.40;;;49.70;;
11039;SDS011;5573;49.592;8.662;2023-02-28T04:58:40;49.03;;;46.50;;
11039;SDS011;5573;49.592;8.662;2023-02-28T05:01:16;50.60;;;47.97;;
11039;SDS011;5573;49.592;8.662;2023-02-28T05:03:45;51.17;;;48.47;;
11039;SDS011;5573;49.592;8.662;2023-02-28T05:06:13;49.57;;;47.00;;
11039;SDS011;5573;49.592;8.662;2023-02-28T05:08:42;51.33;;;48.70;;
11039;SDS011;5573;49.592;8.662;2023-02-28T05:11:13;53.37;;;50.60;;
11039;SDS011;5573;49.592;8.662;2023-02-28T05:13:44;55.67;;;52.73;;
11039;SDS011;5573;49.592;8.662;2023-02-28T05:16:12;49.17;;;46.60;;
11039;SDS011;5573;49.592;8.662;2023-02-28T05:18:40;49.80;;;47.17;;
11039;SDS011;5573;49.592;8.662;2023-02-28T05:21:17;56.97;;;53.97;;
11039;SDS011;5573;49.592;8.662;2023-02-28T05:23:52;53.13;;;50.37;;
11039;SDS011;5573;49.592;8.662;2023-02-28T05:26:20;56.67;;;53.67;;
11039;SDS011;5573;49.592;8.662;2023-02-28T05:28:49;56.13;;;53.20;;
11039;SDS011;5573;49.592;8.662;2023-02-28T05:31:17;58.27;;;55.27;;
11039;SDS011;5573;49.592;8.662;2023-02-28T05:33:45;58.10;;;55.10;;
11039;SDS011;5573;49.592;8.662;2023-02-28T05:36:13;56.67;;;53.67;;
11039;SDS011;5573;49.592;8.662;2023-02-28T05:38:41;59.03;;;56.00;;
11039;SDS011;5573;49.592;8.662;2023-02-28T05:41:09;62.63;;;59.40;;
11039;SDS011;5573;49.592;8.662;2023-02-28T05:43:38;57.17;;;54.20;;
11039;SDS011;5573;49.592;8.662;2023-02-28T05:46:08;62.27;;;58.97;;
11039;SDS011;5573;49.592;8.662;2023-02-28T05:48:37;59.00;;;55.90;;
11039;SDS011;5573;49.592;8.662;2023-02-28T05:51:06;53.13;;;50.33;;
11039;SDS011;5573;49.592;8.662;2023-02-28T05:53:35;60.80;;;57.63;;
11039;SDS011;5573;49.592;8.662;2023-02-28T05:56:03;58.63;;;55.60;;
11039;SDS011;5573;49.592;8.662;2023-02-28T05:58:31;52.33;;;49.60;;
11039;SDS011;5573;49.592;8.662;2023-02-28T06:01:01;58.73;;;55.67;;
11039;SDS011;5573;49.592;8.662;2023-02-28T06:03:49;53.07;;;50.33;;
11039;SDS011;5573;49.592;8.662;2023-02-28T06:06:17;61.97;;;58.77;;
11039;SDS011;5573;49.592;8.662;2023-02-28T06:08:44;58.40;;;55.33;;
11039;SDS011;5573;49.592;8.662;2023-02-28T06:11:12;58.10;;;55.10;;
11039;SDS011;5573;49.592;8.662;2023-02-28T06:13:40;59.33;;;56.23;;
11039;SDS011;5573;49.592;8.662;2023-02-28T06:16:08;58.30;;;55.27;;
11039;SDS011;5573;49.592;8.662;2023-02-28T06:18:39;56.13;;;53.20;;
11039;SDS011;5573;49.592;8.662;2023-02-28T06:21:06;54.70;;;51.87;;
11039;SDS011;5573;49.592;8.662;2023-02-28T06:23:35;58.60;;;55.53;;
11039;SDS011;5573;49.592;8.662;2023-02-28T06:26:03;60.57;;;57.43;;
11039;SDS011;5573;49.592;8.662;2023-02-28T06:28:31;58.70;;;55.60;;
11039;SDS011;5573;49.592;8.662;2023-02-28T06:30:59;58.53;;;55.50;;
11039;SDS011;5573;49.592;8.662;2023-02-28T06:33:26;61.40;;;58.23;;
11039;SDS011;5573;49.592;8.662;2023-02-28T06:35:55;63.37;;;60.10;;
11039;SDS011;5573;49.592;8.662;2023-02-28T06:38:23;57.47;;;54.33;;
11039;SDS011;5573;49.592;8.662;2023-02-28T06:40:54;61.17;;;57.87;;
11039;SDS011;5573;49.592;8.662;2023-02-28T06:43:22;55.50;;;52.63;;
11039;SDS011;5573;49.592;8.662;2023-02-28T06:45:50;65.53;;;62.13;;
11039;SDS011;5573;49.592;8.662;2023-02-28T06:48:17;56.93;;;53.93;;
11039;SDS011;5573;49.592;8.662;2023-02-28T06:50:45;60.73;;;57.57;;
11039;SDS011;5573;49.592;8.662;2023-02-28T06:53:14;61.87;;;58.30;;
11039;SDS011;5573;49.592;8.662;2023-02-28T06:55:42;64.37;;;60.53;;
11039;SDS011;5573;49.592;8.662;2023-02-28T06:58:09;63.50;;;60.07;;
11039;SDS011;5573;49.592;8.662;2023-02-28T07:00:45;62.07;;;58.83;;
11039;SDS011;5573;49.592;8.662;2023-02-28T07:03:17;61.70;;;58.47;;
11039;SDS011;5573;49.592;8.662;2023-02-28T07:05:45;55.80;;;52.83;;
11039;SDS011;5573;49.592;8.662;2023-02-28T07:08:14;58.87;;;55.83;;
11039;SDS011;5573;49.592;8.662;2023-02-28T07:10:42;60.33;;;57.07;;
11039;SDS011;5573;49.592;8.662;2023-02-28T07:13:10;56.63;;;53.67;;
11039;SDS011;5573;49.592;8.662;2023-02-28T07:15:37;67.97;;;64.40;;
11039;SDS011;5573;49.592;8.662;2023-02-28T07:18:09;62.53;;;59.23;;
11039;SDS011;5573;49.592;8.662;2023-02-28T07:20:37;63.50;;;60.07;;
11039;SDS011;5573;49.592;8.662;2023-02-28T07:23:04;70.20;;;66.60;;
11039;SDS011;5573;49.592;8.662;2023-02-28T07:25:33;67.10;;;63.67;;
11039;SDS011;5573;49.592;8.662;2023-02-28T07:28:01;66.53;;;63.07;;
11039;SDS011;5573;49.592;8.662;2023-02-28T07:30:29;69.50;;;65.90;;
11039;SDS011;5573;49.592;8.662;2023-02-28T07:32:57;68.57;;;65.03;;
11039;SDS011;5573;49.592;8.662;2023-02-28T07:35:24;75.77;;;71.83;;
11039;SDS011;5573;49.592;8.662;2023-02-28T07:37:52;72.97;;;69.13;;
11039;SDS011;5573;49.592;8.662;2023-02-28T07:40:19;81.40;;;77.23;;
11039;SDS011;5573;49.592;8.662;2023-02-28T07:42:49;78.07;;;74.10;;
11039;SDS011;5573;49.592;8.662;2023-02-28T07:45:16;76.63;;;72.70;;
11039;SDS011;5573;49.592;8.662;2023-02-28T07:47:44;87.90;;;83.40;;
11039;SDS011;5573;49.592;8.662;2023-02-28T07:50:14;85.00;;;80.67;;
11039;SDS011;5573;49.592;8.662;2023-02-28T07:52:42;76.10;;;72.20;;
11039;SDS011;5573;49.592;8.662;2023-02-28T07:55:10;85.17;;;80.77;;
11039;SDS011;5573;49.592;8.662;2023-02-28T07:57:39;85.23;;;80.87;;
11039;SDS011;5573;49.592;8.662;2023-02-28T08:00:10;82.13;;;77.93;;
11039;SDS011;5573;49.592;8.662;2023-02-28T08:02:40;76.10;;;72.20;;
11039;SDS011;5573;49.592;8.662;2023-02-28T08:05:07;79.30;;;75.20;;
11039;SDS011;5573;49.592;8.662;2023-02-28T08:07:36;75.77;;;71.50;;
11039;SDS011;5573;49.592;8.662;2023-02-28T08:10:03;77.97;;;73.93;;
11039;SDS011;5573;49.592;8.662;2023-02-28T08:12:32;73.40;;;69.57;;
11039;SDS011;5573;49.592;8.662;2023-02-28T08:15:00;70.50;;;66.87;;
11039;SDS011;5573;49.592;8.662;2023-02-28T08:17:29;77.10;;;73.13;;
11039;SDS011;5573;49.592;8.662;2023-02-28T08:20:00;71.63;;;67.90;;
11039;SDS011;5573;49.592;8.662;2023-02-28T08:22:28;72.73;;;69.00;;
11039;SDS011;5573;49.592;8.662;2023-02-28T08:24:55;66.63;;;63.17;;
11039;SDS011;5573;49.592;8.662;2023-02-28T08:27:23;67.23;;;63.73;;
11039;SDS011;5573;49.592;8.662;2023-02-28T08:29:51;66.20;;;62.70;;
11039;SDS011;5573;49.592;8.662;2023-02-28T08:32:19;67.07;;;63.60;;
11039;SDS011;5573;49.592;8.662;2023-02-28T08:34:56;65.77;;;62.40;;
11039;SDS011;5573;49.592;8.662;2023-02-28T08:37:24;68.07;;;64.60;;
11039;SDS011;5573;49.592;8.662;2023-02-28T08:39:52;75.67;;;71.73;;
11039;SDS011;5573;49.592;8.662;2023-02-28T08:42:22;66.97;;;63.43;;
11039;SDS011;5573;49.592;8.662;2023-02-28T08:44:49;66.80;;;63.33;;
11039;SDS011;5573;49.592;8.662;2023-02-28T08:47:17;62.03;;;58.83;;
11039;SDS011;5573;49.592;8.662;2023-02-28T08:49:45;66.83;;;63.40;;
11039;SDS011;5573;49.592;8.662;2023-02-28T08:52:14;66.90;;;63.37;;
11039;SDS011;5573;49.592;8.662;2023-02-28T08:54:42;63.80;;;60.47;;
11039;SDS011;5573;49.592;8.662;2023-02-28T08:57:10;69.10;;;65.37;;
11039;SDS011;5573;49.592;8.662;2023-02-28T08:59:38;64.43;;;61.10;;
11039;SDS011;5573;49.592;8.662;2023-02-28T09:02:08;75.67;;;71.77;;
11039;SDS011;5573;49.592;8.662;2023-02-28T09:04:36;75.77;;;71.87;;
11039;SDS011;5573;49.592;8.662;2023-02-28T09:07:03;79.13;;;74.93;;
11039;SDS011;5573;49.592;8.662;2023-02-28T09:09:32;69.03;;;65.43;;
11039;SDS011;5573;49.592;8.662;2023-02-28T09:12:00;71.83;;;68.17;;
11039;SDS011;5573;49.592;8.662;2023-02-28T09:14:28;70.10;;;66.50;;
11039;SDS011;5573;49.592;8.662;2023-02-28T09:16:56;62.90;;;59.60;;
11039;SDS011;5573;49.592;8.662;2023-02-28T09:19:23;67.17;;;63.67;;
11039;SDS011;5573;49.592;8.662;2023-02-28T09:21:51;62.50;;;59.23;;
11039;SDS011;5573;49.592;8.662;2023-02-28T09:24:19;62.13;;;58.93;;
11039;SDS011;5573;49.592;8.662;2023-02-28T09:26:48;66.63;;;63.07;;
11039;SDS011;5573;49.592;8.662;2023-02-28T09:29:29;55.83;;;52.93;;
11039;SDS011;5573;49.592;8.662;2023-02-28T09:31:57;54.07;;;51.27;;
11039;SDS011;5573;49.592;8.662;2023-02-28T09:34:26;61.47;;;58.13;;
11039;SDS011;5573;49.592;8.662;2023-02-28T09:36:54;51.17;;;48.43;;
11039;SDS011;5573;49.592;8.662;2023-02-28T09:39:22;53.93;;;51.13;;
11039;SDS011;5573;49.592;8.662;2023-02-28T09:41:54;54.40;;;51.53;;
11039;SDS011;5573;49.592;8.662;2023-02-28T09:44:26;54.37;;;51.57;;
11039;SDS011;5573;49.592;8.662;2023-02-28T09:46:59;57.80;;;54.83;;
11039;SDS011;5573;49.592;8.662;2023-02-28T09:49:34;51.47;;;48.77;;
11039;SDS011;5573;49.592;8.662;2023-02-28T09:52:09;48.13;;;45.67;;
11039;SDS011;5573;49.592;8.662;2023-02-28T09:54:39;50.70;;;48.00;;
11039;SDS011;5573;49.592;8.662;2023-02-28T09:57:11;54.63;;;51.13;;
11039;SDS011;5573;49.592;8.662;2023-02-28T09:59:51;51.80;;;49.07;;
11039;SDS011;5573;49.592;8.662;2023-02-28T10:05:32;44.30;;;41.83;;
11039;SDS011;5573;49.592;8.662;2023-02-28T10:08:05;48.63;;;46.13;;
11039;SDS011;5573;49.592;8.662;2023-02-28T10:10:40;40.77;;;38.43;;
11039;SDS011;5573;49.592;8.662;2023-02-28T10:13:16;53.77;;;50.80;;
11039;SDS011;5573;49.592;8.662;2023-02-28T10:15:50;45.30;;;42.93;;
11039;SDS011;5573;49.592;8.662;2023-02-28T10:18:23;45.10;;;42.77;;
11039;SDS011;5573;49.592;8.662;2023-02-28T10:20:54;50.53;;;47.83;;
11039;SDS011;5573;49.592;8.662;2023-02-28T10:23:23;53.70;;;50.83;;
11039;SDS011;5573;49.592;8.662;2023-02-28T10:25:57;49.27;;;46.67;;
11039;SDS011;5573;49.592;8.662;2023-02-28T10:28:28;49.20;;;46.60;;
11039;SDS011;5573;49.592;8.662;2023-02-28T10:30:57;47.27;;;44.80;;
11039;SDS011;5573;49.592;8.662;2023-02-28T10:33:28;42.40;;;40.17;;
11039;SDS011;5573;49.592;8.662;2023-02-28T10:35:58;40.57;;;38.37;;
11039;SDS011;5573;49.592;8.662;2023-02-28T10:38:27;39.67;;;37.57;;
11039;SDS011;5573;49.592;8.662;2023-02-28T10:41:06;41.60;;;39.37;;
11039;SDS011;5573;49.592;8.662;2023-02-28T10:43:37;37.70;;;35.73;;
11039;SDS011;5573;49.592;8.662;2023-02-28T10:46:10;39.53;;;37.43;;
11039;SDS011;5573;49.592;8.662;2023-02-28T10:48:42;39.33;;;37.23;;
11039;SDS011;5573;49.592;8.662;2023-02-28T10:51:15;43.73;;;41.37;;
11039;SDS011;5573;49.592;8.662;2023-02-28T10:53:47;44.30;;;42.00;;
11039;SDS011;5573;49.592;8.662;2023-02-28T10:56:28;38.90;;;36.90;;
11039;SDS011;5573;49.592;8.662;2023-02-28T10:58:59;39.33;;;37.27;;
11039;SDS011;5573;49.592;8.662;2023-02-28T11:01:36;35.27;;;33.43;;
11039;SDS011;5573;49.592;8.662;2023-02-28T11:07:05;36.83;;;34.73;;
11039;SDS011;5573;49.592;8.662;2023-02-28T11:09:34;36.70;;;34.77;;
11039;SDS011;5573;49.592;8.662;2023-02-28T11:12:05;34.20;;;32.43;;
11039;SDS011;5573;49.592;8.662;2023-02-28T11:14:39;37.23;;;35.13;;
11039;SDS011;5573;49.592;8.662;2023-02-28T11:17:14;37.43;;;35.40;;
11039;SDS011;5573;49.592;8.662;2023-02-28T11:19:49;37.97;;;35.97;;
11039;SDS011;5573;49.592;8.662;2023-02-28T11:22:19;40.17;;;38.07;;
11039;SDS011;5573;49.592;8.662;2023-02-28T11:24:49;34.00;;;31.97;;
11039;SDS011;5573;49.592;8.662;2023-02-28T11:27:25;40.27;;;38.07;;
11039;SDS011;5573;49.592;8.662;2023-02-28T11:30:17;33.10;;;31.37;;
11039;SDS011;5573;49.592;8.662;2023-02-28T11:32:58;36.93;;;34.63;;
11039;SDS011;5573;49.592;8.662;2023-02-28T11:35:27;35.10;;;33.13;;
11039;SDS011;5573;49.592;8.662;2023-02-28T11:37:57;38.23;;;36.17;;
11039;SDS011;5573;49.592;8.662;2023-02-28T11:40:30;38.07;;;35.77;;
11039;SDS011;5573;49.592;8.662;2023-02-28T11:43:08;40.50;;;38.30;;
11039;SDS011;5573;49.592;8.662;2023-02-28T11:45:53;36.13;;;34.23;;
11039;SDS011;5573;49.592;8.662;2023-02-28T11:48:33;38.80;;;36.57;;
11039;SDS011;5573;49.592;8.662;2023-02-28T11:51:12;35.27;;;33.33;;
11039;SDS011;5573;49.592;8.662;2023-02-28T11:53:56;35.70;;;33.70;;
11039;SDS011;5573;49.592;8.662;2023-02-28T11:56:49;29.33;;;27.80;;
11039;SDS011;5573;49.592;8.662;2023-02-28T11:59:28;35.13;;;33.27;;
11039;SDS011;5573;49.592;8.662;2023-02-28T12:05:01;34.73;;;32.90;;
11039;SDS011;5573;49.592;8.662;2023-02-28T12:07:40;32.70;;;30.93;;
11039;SDS011;5573;49.592;8.662;2023-02-28T12:10:20;33.17;;;31.37;;
11039;SDS011;5573;49.592;8.662;2023-02-28T12:12:53;32.20;;;30.50;;
11039;SDS011;5573;49.592;8.662;2023-02-28T12:18:29;32.80;;;31.10;;
11039;SDS011;5573;49.592;8.662;2023-02-28T12:21:07;33.20;;;31.47;;
11039;SDS011;5573;49.592;8.662;2023-02-28T12:23:48;36.30;;;34.27;;
11039;SDS011;5573;49.592;8.662;2023-02-28T12:26:27;31.63;;;29.97;;
11039;SDS011;5573;49.592;8.662;2023-02-28T12:29:04;32.20;;;30.43;;
11039;SDS011;5573;49.592;8.662;2023-02-28T12:31:40;31.07;;;29.43;;
11039;SDS011;5573;49.592;8.662;2023-02-28T12:34:15;32.47;;;30.70;;
11039;SDS011;5573;49.592;8.662;2023-02-28T12:36:47;34.47;;;32.47;;
11039;SDS011;5573;49.592;8.662;2023-02-28T12:39:18;31.87;;;30.03;;
11039;SDS011;5573;49.592;8.662;2023-02-28T12:41:53;35.53;;;33.43;;
11039;SDS011;5573;49.592;8.662;2023-02-28T12:44:26;34.97;;;33.07;;
11039;SDS011;5573;49.592;8.662;2023-02-28T12:46:58;30.47;;;28.57;;
11039;SDS011;5573;49.592;8.662;2023-02-28T12:49:32;36.47;;;34.53;;
11039;SDS011;5573;49.592;8.662;2023-02-28T12:52:05;35.13;;;33.27;;
11039;SDS011;5573;49.592;8.662;2023-02-28T12:54:38;32.83;;;31.10;;
11039;SDS011;5573;49.592;8.662;2023-02-28T12:57:17;33.53;;;31.80;;
11039;SDS011;5573;49.592;8.662;2023-02-28T12:59:51;32.13;;;30.50;;
11039;SDS011;5573;49.592;8.662;2023-02-28T13:02:40;33.97;;;32.17;;
11039;SDS011;5573;49.592;8.662;2023-02-28T13:08:51;30.37;;;28.70;;
11039;SDS011;5573;49.592;8.662;2023-02-28T13:11:29;30.30;;;28.67;;
11039;SDS011;5573;49.592;8.662;2023-02-28T13:14:00;33.60;;;31.80;;
11039;SDS011;5573;49.592;8.662;2023-02-28T13:19:18;30.77;;;29.07;;
11039;SDS011;5573;49.592;8.662;2023-02-28T13:21:49;30.77;;;29.17;;
11039;SDS011;5573;49.592;8.662;2023-02-28T13:24:38;32.73;;;31.03;;
11039;SDS011;5573;49.592;8.662;2023-02-28T13:30:02;27.70;;;26.27;;
11039;SDS011;5573;49.592;8.662;2023-02-28T13:33:26;28.90;;;27.37;;
11039;SDS011;5573;49.592;8.662;2023-02-28T13:36:06;31.90;;;30.23;;
11039;SDS011;5573;49.592;8.662;2023-02-28T13:38:50;27.90;;;26.27;;
11039;SDS011;5573;49.592;8.662;2023-02-28T13:41:41;30.50;;;28.90;;
11039;SDS011;5573;49.592;8.662;2023-02-28T13:44:14;29.83;;;28.20;;
11039;SDS011;5573;49.592;8.662;2023-02-28T13:49:51;27.07;;;25.67;;
11039;SDS011;5573;49.592;8.662;2023-02-28T13:52:20;29.97;;;28.27;;
11039;SDS011;5573;49.592;8.662;2023-02-28T13:54:56;33.40;;;31.67;;
11039;SDS011;5573;49.592;8.662;2023-02-28T13:57:40;33.17;;;31.43;;
11039;SDS011;5573;49.592;8.662;2023-02-28T14:00:21;32.10;;;30.40;;
11039;SDS011;5573;49.592;8.662;2023-02-28T14:06:03;28.47;;;26.80;;
11039;SDS011;5573;49.592;8.662;2023-02-28T14:08:36;27.70;;;26.30;;
11039;SDS011;5573;49.592;8.662;2023-02-28T14:11:05;29.03;;;27.47;;
11039;SDS011;5573;49.592;8.662;2023-02-28T14:13:39;30.77;;;29.13;;
11039;SDS011;5573;49.592;8.662;2023-02-28T14:16:11;29.80;;;28.27;;
11039;SDS011;5573;49.592;8.662;2023-02-28T14:18:42;33.33;;;31.57;;
11039;SDS011;5573;49.592;8.662;2023-02-28T14:21:20;29.63;;;28.07;;
11039;SDS011;5573;49.592;8.662;2023-02-28T14:26:56;29.47;;;27.80;;
11039;SDS011;5573;49.592;8.662;2023-02-28T14:29:53;29.00;;;27.47;;
11039;SDS011;5573;49.592;8.662;2023-02-28T14:32:32;30.73;;;29.03;;
11039;SDS011;5573;49.592;8.662;2023-02-28T14:35:03;32.97;;;31.17;;
11039;SDS011;5573;49.592;8.662;2023-02-28T14:37:44;29.77;;;28.13;;
11039;SDS011;5573;49.592;8.662;2023-02-28T14:40:13;34.13;;;32.30;;
11039;SDS011;5573;49.592;8.662;2023-02-28T14:42:47;29.70;;;28.13;;
11039;SDS011;5573;49.592;8.662;2023-02-28T14:45:20;32.77;;;31.07;;
11039;SDS011;5573;49.592;8.662;2023-02-28T14:47:48;28.87;;;27.20;;
11039;SDS011;5573;49.592;8.662;2023-02-28T14:50:18;29.63;;;28.00;;
11039;SDS011;5573;49.592;8.662;2023-02-28T14:52:47;30.70;;;29.00;;
11039;SDS011;5573;49.592;8.662;2023-02-28T14:55:19;30.60;;;28.63;;
11039;SDS011;5573;49.592;8.662;2023-02-28T14:57:52;29.23;;;27.73;;
11039;SDS011;5573;49.592;8.662;2023-02-28T15:00:24;27.63;;;26.20;;
11039;SDS011;5573;49.592;8.662;2023-02-28T15:02:53;26.33;;;24.97;;
11039;SDS011;5573;49.592;8.662;2023-02-28T15:05:24;26.33;;;24.93;;
11039;SDS011;5573;49.592;8.662;2023-02-28T15:08:04;27.50;;;26.03;;
11039;SDS011;5573;49.592;8.662;2023-02-28T15:10:38;26.47;;;25.07;;
11039;SDS011;5573;49.592;8.662;2023-02-28T15:13:10;31.10;;;29.40;;
11039;SDS011;5573;49.592;8.662;2023-02-28T15:15:44;28.53;;;26.93;;
11039;SDS011;5573;49.592;8.662;2023-02-28T15:18:31;27.27;;;25.87;;
11039;SDS011;5573;49.592;8.662;2023-02-28T15:21:11;24.97;;;23.67;;
11039;SDS011;5573;49.592;8.662;2023-02-28T15:23:43;24.23;;;22.97;;
11039;SDS011;5573;49.592;8.662;2023-02-28T15:26:13;27.30;;;25.87;;
11039;SDS011;5573;49.592;8.662;2023-02-28T15:28:47;30.17;;;28.63;;
11039;SDS011;5573;49.592;8.662;2023-02-28T15:31:22;26.83;;;25.43;;
11039;SDS011;5573;49.592;8.662;2023-02-28T15:34:02;28.13;;;26.57;;
11039;SDS011;5573;49.592;8.662;2023-02-28T15:36:32;27.70;;;26.27;;
11039;SDS011;5573;49.592;8.662;2023-02-28T15:39:16;27.83;;;26.37;;
11039;SDS011;5573;49.592;8.662;2023-02-28T15:41:46;29.40;;;27.77;;